createdAt,value
2018-06-29T00:02:58.096Z,5.80
2018-06-29T00:06:01.711Z,5.60
2018-06-29T00:09:07.804Z,5.50
2018-06-29T00:12:11.386Z,5.87
2018-06-29T00:15:15.006Z,5.33
2018-06-29T00:18:18.686Z,5.70
2018-06-29T00:21:22.239Z,5.43
2018-06-29T00:24:26.368Z,5.53
2018-06-29T00:27:30.012Z,6.17
2018-06-29T00:30:33.710Z,4.97
2018-06-29T00:33:37.286Z,5.67
2018-06-29T00:36:40.921Z,6.00
2018-06-29T00:39:44.578Z,5.90
2018-06-29T00:42:48.246Z,5.53
2018-06-29T00:45:51.831Z,5.07
2018-06-29T00:48:55.411Z,5.23
2018-06-29T00:51:58.936Z,5.37
2018-06-29T00:55:02.531Z,5.27
2018-06-29T00:58:06.142Z,5.33
2018-06-29T01:01:09.828Z,5.90
2018-06-29T01:04:13.386Z,6.03
2018-06-29T01:07:16.984Z,5.43
2018-06-29T01:10:20.707Z,6.70
2018-06-29T01:13:24.336Z,6.30
2018-06-29T01:16:28.008Z,6.20
2018-06-29T01:19:31.701Z,6.80
2018-06-29T01:22:35.531Z,6.40
2018-06-29T01:25:39.291Z,6.50
2018-06-29T01:28:43.074Z,7.20
2018-06-29T01:31:46.677Z,7.27
2018-06-29T01:34:50.298Z,8.00
2018-06-29T01:37:53.983Z,7.93
2018-06-29T01:40:57.577Z,7.47
2018-06-29T01:44:01.227Z,7.30
2018-06-29T01:47:05.022Z,7.27
2018-06-29T01:50:08.732Z,8.10
2018-06-29T01:53:12.291Z,7.03
2018-06-29T01:56:15.927Z,6.50
2018-06-29T01:59:19.693Z,7.40
2018-06-29T02:02:23.496Z,6.53
2018-06-29T02:05:27.344Z,7.90
2018-06-29T02:08:30.948Z,8.10
2018-06-29T02:11:34.589Z,8.17
2018-06-29T02:14:38.257Z,7.47
2018-06-29T02:17:41.898Z,8.33
2018-06-29T02:20:45.632Z,8.07
2018-06-29T02:23:49.433Z,8.40
2018-06-29T02:26:53.016Z,8.13
2018-06-29T02:29:56.687Z,8.37
2018-06-29T02:33:00.315Z,8.60
2018-06-29T02:36:04.057Z,9.00
2018-06-29T02:39:10.118Z,8.87
2018-06-29T02:42:13.907Z,8.90
2018-06-29T02:45:17.459Z,9.03
2018-06-29T02:48:21.123Z,9.10
2018-06-29T02:51:24.753Z,9.10
2018-06-29T02:54:28.388Z,8.80
2018-06-29T02:57:31.971Z,9.60
2018-06-29T03:00:35.677Z,9.07
2018-06-29T03:03:39.287Z,9.23
2018-06-29T03:06:42.857Z,9.10
2018-06-29T03:09:46.512Z,9.50
2018-06-29T03:12:50.090Z,9.10
2018-06-29T03:15:53.796Z,9.60
2018-06-29T03:18:57.442Z,8.60
2018-06-29T03:22:01.072Z,8.80
2018-06-29T03:25:05.347Z,7.90
2018-06-29T03:28:09.038Z,8.07
2018-06-29T03:31:12.637Z,7.10
2018-06-29T03:34:16.222Z,7.93
2018-06-29T03:37:19.787Z,7.47
2018-06-29T03:40:23.656Z,7.03
2018-06-29T03:43:27.275Z,6.60
2018-06-29T03:46:30.830Z,6.93
2018-06-29T03:49:34.486Z,6.20
2018-06-29T03:52:38.219Z,6.80
2018-06-29T03:55:41.827Z,6.53
2018-06-29T03:58:45.472Z,6.57
2018-06-29T04:01:49.193Z,7.47
2018-06-29T04:04:52.803Z,7.07
2018-06-29T04:07:56.569Z,6.60
2018-06-29T04:11:00.249Z,7.03
2018-06-29T04:14:03.995Z,6.93
2018-06-29T04:17:07.633Z,7.10
2018-06-29T04:20:11.233Z,6.70
2018-06-29T04:23:14.963Z,6.87
2018-06-29T04:26:18.628Z,6.40
2018-06-29T04:29:22.234Z,6.40
2018-06-29T04:32:25.908Z,7.00
2018-06-29T04:35:29.605Z,6.77
2018-06-29T04:38:33.228Z,6.63
2018-06-29T04:41:37.143Z,7.00
2018-06-29T04:44:40.783Z,6.47
2018-06-29T04:47:44.395Z,6.70
2018-06-29T04:50:48.069Z,6.70
2018-06-29T04:53:51.652Z,6.33
2018-06-29T04:56:55.327Z,6.63
2018-06-29T04:59:58.950Z,6.80
2018-06-29T05:03:02.669Z,7.50
2018-06-29T05:06:06.535Z,7.60
2018-06-29T05:09:10.234Z,8.23
2018-06-29T05:12:13.913Z,7.50
2018-06-29T05:15:17.533Z,8.37
2018-06-29T05:18:21.213Z,8.40
2018-06-29T05:21:24.800Z,8.13
2018-06-29T05:24:28.599Z,7.77
2018-06-29T05:27:32.223Z,7.90
2018-06-29T05:30:35.899Z,8.40
2018-06-29T05:33:39.598Z,8.07
2018-06-29T05:36:43.229Z,8.23
2018-06-29T05:39:47.240Z,7.53
2018-06-29T05:42:51.756Z,7.40
2018-06-29T05:45:55.384Z,7.87
2018-06-29T05:48:58.941Z,7.50
2018-06-29T05:52:02.526Z,8.40
2018-06-29T05:55:06.591Z,8.10
2018-06-29T05:58:10.309Z,8.93
2018-06-29T06:01:14.699Z,8.10
2018-06-29T06:04:18.466Z,7.43
2018-06-29T06:07:22.409Z,8.30
2018-06-29T06:10:26.310Z,8.57
2018-06-29T06:13:30.049Z,8.87
2018-06-29T06:16:33.644Z,8.67
2018-06-29T06:19:48.456Z,7.97
2018-06-29T06:22:52.160Z,8.00
2018-06-29T06:25:55.899Z,7.87
2018-06-29T06:28:59.640Z,8.13
2018-06-29T06:32:03.286Z,7.53
2018-06-29T06:35:06.991Z,8.30
2018-06-29T06:38:10.815Z,8.80
2018-06-29T06:41:14.459Z,8.03
2018-06-29T06:44:18.190Z,8.57
2018-06-29T06:47:21.805Z,8.67
2018-06-29T06:50:25.422Z,7.90
2018-06-29T06:53:29.077Z,8.43
2018-06-29T06:56:32.756Z,8.10
2018-06-29T06:59:36.404Z,7.77
2018-06-29T07:02:40.291Z,8.23
2018-06-29T07:05:43.901Z,8.43
2018-06-29T07:08:47.493Z,8.40
2018-06-29T07:11:51.202Z,8.67
2018-06-29T07:14:54.781Z,8.40
2018-06-29T07:17:58.558Z,7.90
2018-06-29T07:21:02.442Z,8.93
2018-06-29T07:24:06.453Z,8.90
2018-06-29T07:27:10.121Z,9.03
2018-06-29T07:30:13.852Z,8.90
2018-06-29T07:33:17.517Z,9.00
2018-06-29T07:36:21.197Z,9.10
2018-06-29T07:39:24.845Z,9.40
2018-06-29T07:42:28.478Z,9.00
2018-06-29T07:45:32.118Z,8.37
2018-06-29T07:48:35.745Z,7.70
2018-06-29T07:51:39.406Z,8.10
2018-06-29T07:54:43.112Z,8.00
2018-06-29T07:57:46.693Z,8.20
2018-06-29T08:00:50.401Z,7.83
2018-06-29T08:03:54.042Z,6.87
2018-06-29T08:06:57.837Z,7.33
2018-06-29T08:10:01.468Z,7.50
2018-06-29T08:13:05.113Z,8.80
2018-06-29T08:16:08.930Z,7.07
2018-06-29T08:19:12.571Z,7.90
2018-06-29T08:22:16.230Z,6.40
2018-06-29T08:25:19.941Z,7.07
2018-06-29T08:28:23.537Z,8.67
2018-06-29T08:31:27.200Z,6.83
2018-06-29T08:34:30.810Z,7.00
2018-06-29T08:37:34.482Z,7.17
2018-06-29T08:40:38.208Z,6.37
2018-06-29T08:43:41.895Z,7.20
2018-06-29T08:46:45.727Z,5.87
2018-06-29T08:49:49.413Z,5.63
2018-06-29T08:52:53.081Z,4.83
2018-06-29T08:55:56.825Z,6.50
2018-06-29T08:59:00.651Z,6.67
2018-06-29T09:02:04.276Z,6.40
2018-06-29T09:05:08.334Z,5.40
2018-06-29T09:08:12.066Z,5.67
2018-06-29T09:11:15.666Z,5.70
2018-06-29T09:14:19.390Z,4.67
2018-06-29T09:17:23.042Z,4.30
2018-06-29T09:20:26.669Z,4.40
2018-06-29T09:23:30.498Z,4.67
2018-06-29T09:26:34.177Z,3.80
2018-06-29T09:29:37.864Z,3.60
2018-06-29T09:32:41.516Z,3.97
2018-06-29T09:35:45.156Z,4.10
2018-06-29T09:38:48.772Z,3.70
2018-06-29T09:41:52.458Z,3.20
2018-06-29T09:44:56.216Z,3.93
2018-06-29T09:48:00.293Z,3.73
2018-06-29T09:51:03.903Z,3.40
2018-06-29T09:54:07.617Z,3.03
2018-06-29T09:57:11.303Z,3.30
2018-06-29T10:00:16.679Z,3.07
2018-06-29T10:03:20.252Z,3.50
2018-06-29T10:06:24.016Z,4.00
2018-06-29T10:09:28.377Z,2.90
2018-06-29T10:12:32.003Z,3.00
2018-06-29T10:15:35.630Z,2.70
2018-06-29T10:18:39.356Z,3.80
2018-06-29T10:21:43.142Z,3.10
2018-06-29T10:24:46.870Z,2.83
2018-06-29T10:27:50.538Z,3.30
2018-06-29T10:30:54.177Z,3.40
2018-06-29T10:33:57.743Z,3.43
2018-06-29T10:37:01.321Z,2.90
2018-06-29T10:40:05.282Z,3.10
2018-06-29T10:43:08.910Z,3.10
2018-06-29T10:46:12.653Z,2.67
2018-06-29T10:49:16.334Z,3.37
2018-06-29T10:52:19.934Z,3.50
2018-06-29T10:55:23.608Z,3.00
2018-06-29T10:58:27.200Z,2.70
2018-06-29T11:01:30.812Z,2.90
2018-06-29T11:04:34.412Z,3.17
2018-06-29T11:07:38.164Z,3.20
2018-06-29T11:10:41.814Z,2.87
2018-06-29T11:13:45.518Z,2.90
2018-06-29T11:16:49.334Z,3.00
2018-06-29T11:19:53.224Z,2.70
2018-06-29T11:22:56.845Z,2.63
2018-06-29T11:26:00.538Z,2.60
2018-06-29T11:29:04.280Z,2.50
2018-06-29T11:32:07.718Z,2.90
2018-06-29T11:35:11.333Z,2.40
2018-06-29T11:38:14.960Z,2.70
2018-06-29T11:41:18.550Z,2.47
2018-06-29T11:44:22.207Z,2.40
2018-06-29T11:47:25.854Z,2.10
2018-06-29T11:50:29.484Z,2.60
2018-06-29T11:53:33.180Z,1.93
2018-06-29T11:56:36.919Z,2.20
2018-06-29T11:59:40.614Z,2.23
2018-06-29T12:02:44.265Z,2.17
2018-06-29T12:05:47.829Z,2.60
2018-06-29T12:08:51.408Z,2.40
2018-06-29T12:11:55.220Z,2.20
2018-06-29T12:14:58.972Z,1.90
2018-06-29T12:18:02.546Z,1.93
2018-06-29T12:21:06.338Z,1.90
2018-06-29T12:24:10.269Z,2.10
2018-06-29T12:27:13.941Z,1.90
2018-06-29T12:30:17.704Z,2.10
2018-06-29T12:33:21.251Z,2.10
2018-06-29T12:36:24.928Z,2.00
2018-06-29T12:39:28.616Z,2.43
2018-06-29T12:42:32.306Z,2.23
2018-06-29T12:45:36.008Z,2.13
2018-06-29T12:48:39.620Z,2.40
2018-06-29T12:51:43.264Z,2.40
2018-06-29T12:54:47.379Z,2.20
2018-06-29T12:57:51.183Z,2.50
2018-06-29T13:00:54.745Z,2.20
2018-06-29T13:03:58.529Z,2.10
2018-06-29T13:07:02.131Z,2.33
2018-06-29T13:10:05.915Z,2.53
2018-06-29T13:13:09.519Z,2.50
2018-06-29T13:16:13.159Z,2.37
2018-06-29T13:19:16.827Z,2.47
2018-06-29T13:22:20.598Z,2.63
2018-06-29T13:25:24.250Z,2.77
2018-06-29T13:28:28.031Z,3.10
2018-06-29T13:31:31.615Z,2.83
2018-06-29T13:34:35.275Z,2.40
2018-06-29T13:37:39.109Z,3.40
2018-06-29T13:40:42.900Z,3.40
2018-06-29T13:43:46.526Z,3.60
2018-06-29T13:46:50.345Z,3.90
2018-06-29T13:49:54.050Z,4.17
2018-06-29T13:52:57.680Z,3.97
2018-06-29T13:56:01.349Z,4.53
2018-06-29T13:59:05.234Z,4.60
2018-06-29T14:02:09.131Z,4.23
2018-06-29T14:05:12.896Z,4.40
2018-06-29T14:08:16.712Z,4.30
2018-06-29T14:11:20.360Z,4.50
2018-06-29T14:14:24.086Z,4.17
2018-06-29T14:17:27.875Z,4.10
2018-06-29T14:20:31.545Z,4.03
2018-06-29T14:23:35.281Z,4.40
2018-06-29T14:26:38.936Z,4.13
2018-06-29T14:29:42.629Z,4.23
2018-06-29T14:32:46.293Z,3.90
2018-06-29T14:35:49.925Z,3.80
2018-06-29T14:38:53.550Z,3.63
2018-06-29T14:41:57.281Z,4.00
2018-06-29T14:45:00.938Z,3.60
2018-06-29T14:48:04.770Z,3.63
2018-06-29T14:51:08.381Z,3.53
2018-06-29T14:54:12.062Z,3.40
2018-06-29T14:57:15.676Z,3.17
2018-06-29T15:00:19.315Z,3.10
2018-06-29T15:03:23.015Z,2.90
2018-06-29T15:06:26.867Z,3.30
2018-06-29T15:09:30.578Z,3.60
2018-06-29T15:12:34.165Z,3.13
2018-06-29T15:15:38.594Z,3.00
2018-06-29T15:18:42.758Z,3.43
2018-06-29T15:21:46.488Z,3.30
2018-06-29T15:24:50.187Z,3.33
2018-06-29T15:28:00.315Z,3.20
2018-06-29T15:31:03.962Z,3.17
2018-06-29T15:34:07.645Z,3.20
2018-06-29T15:37:11.249Z,3.67
2018-06-29T15:40:14.856Z,3.27
2018-06-29T15:43:18.530Z,3.30
2018-06-29T15:46:22.349Z,3.20
2018-06-29T15:49:26.011Z,3.63
2018-06-29T15:52:29.713Z,3.10
2018-06-29T15:55:33.404Z,2.97
2018-06-29T15:58:37.095Z,3.07
2018-06-29T16:01:40.818Z,3.10
2018-06-29T16:04:44.442Z,3.10
2018-06-29T16:07:48.273Z,3.50
2018-06-29T16:10:51.877Z,3.67
2018-06-29T16:13:55.501Z,3.40
2018-06-29T16:16:59.237Z,3.27
2018-06-29T16:20:02.916Z,3.30
2018-06-29T16:23:07.408Z,3.27
2018-06-29T16:26:11.081Z,3.40
2018-06-29T16:29:14.851Z,3.50
2018-06-29T16:32:18.562Z,4.27
2018-06-29T16:35:22.183Z,3.37
2018-06-29T16:38:26.206Z,3.40
2018-06-29T16:41:30.038Z,3.80
2018-06-29T16:44:33.829Z,3.57
2018-06-29T16:47:37.506Z,4.10
2018-06-29T16:50:41.205Z,3.80
2018-06-29T16:53:44.792Z,3.80
2018-06-29T16:56:48.393Z,3.97
2018-06-29T16:59:52.047Z,3.90
2018-06-29T17:02:55.679Z,3.90
2018-06-29T17:05:59.547Z,3.77
2018-06-29T17:09:03.368Z,3.80
2018-06-29T17:12:07.213Z,3.70
2018-06-29T17:15:10.904Z,3.53
2018-06-29T17:18:14.611Z,3.50
2018-06-29T17:21:18.302Z,3.60
2018-06-29T17:24:22.290Z,3.53
2018-06-29T17:27:25.889Z,3.70
2018-06-29T17:30:29.683Z,3.60
2018-06-29T17:33:33.462Z,3.57
2018-06-29T17:36:37.297Z,4.20
2018-06-29T17:39:41.043Z,4.20
2018-06-29T17:42:44.730Z,4.13
2018-06-29T17:45:48.457Z,3.80
2018-06-29T17:48:52.398Z,4.00
2018-06-29T17:51:56.118Z,4.00
2018-06-29T17:54:59.819Z,4.50
2018-06-29T17:58:03.682Z,4.20
2018-06-29T18:01:07.893Z,4.53
2018-06-29T18:04:11.555Z,3.97
2018-06-29T18:07:15.340Z,4.10
2018-06-29T18:10:19.257Z,4.17
2018-06-29T18:13:23.183Z,4.43
2018-06-29T18:16:26.769Z,4.50
2018-06-29T18:19:30.408Z,4.50
2018-06-29T18:22:34.049Z,4.40
2018-06-29T18:25:37.888Z,4.70
2018-06-29T18:28:41.563Z,4.77
2018-06-29T18:31:45.216Z,4.87
2018-06-29T18:34:48.948Z,5.40
2018-06-29T18:37:52.807Z,5.50
2018-06-29T18:40:56.469Z,5.50
2018-06-29T18:44:00.126Z,4.97
2018-06-29T18:47:03.723Z,5.40
2018-06-29T18:50:07.414Z,5.53
2018-06-29T18:53:11.109Z,5.37
2018-06-29T18:56:14.974Z,5.43
2018-06-29T18:59:18.789Z,5.60
2018-06-29T19:02:22.512Z,6.10
2018-06-29T19:05:26.159Z,5.40
2018-06-29T19:08:29.752Z,5.17
2018-06-29T19:11:33.412Z,5.33
2018-06-29T19:14:37.148Z,6.17
2018-06-29T19:17:40.902Z,5.80
2018-06-29T19:20:44.550Z,6.47
2018-06-29T19:23:48.497Z,6.57
2018-06-29T19:26:52.238Z,6.90
2018-06-29T19:29:55.903Z,7.40
2018-06-29T19:32:59.577Z,6.90
2018-06-29T19:36:03.327Z,6.73
2018-06-29T19:39:08.636Z,6.47
2018-06-29T19:42:12.372Z,7.50
2018-06-29T19:45:16.176Z,8.10
2018-06-29T19:48:19.807Z,8.17
2018-06-29T19:51:23.472Z,8.07
2018-06-29T19:54:27.125Z,9.20
2018-06-29T19:57:30.983Z,9.07
2018-06-29T20:00:34.740Z,9.33
2018-06-29T20:03:38.307Z,9.20
2018-06-29T20:06:42.063Z,9.67
2018-06-29T20:09:45.820Z,10.00
2018-06-29T20:12:49.567Z,10.10
2018-06-29T20:15:53.251Z,9.67
2018-06-29T20:18:57.146Z,10.70
2018-06-29T20:22:00.810Z,10.03
2018-06-29T20:25:05.133Z,10.23
2018-06-29T20:28:08.804Z,10.30
2018-06-29T20:31:12.480Z,10.37
2018-06-29T20:34:16.138Z,10.33
2018-06-29T20:37:19.820Z,11.20
2018-06-29T20:40:24.073Z,11.20
2018-06-29T20:43:27.854Z,11.90
2018-06-29T20:46:31.499Z,11.70
2018-06-29T20:49:35.245Z,12.73
2018-06-29T20:52:39.048Z,12.93
2018-06-29T20:55:42.804Z,13.03
2018-06-29T20:58:46.524Z,13.63
2018-06-29T21:01:50.216Z,11.80
2018-06-29T21:04:54.083Z,12.67
2018-06-29T21:07:57.639Z,12.57
2018-06-29T21:11:01.345Z,14.10
2018-06-29T21:14:05.084Z,14.83
2018-06-29T21:17:08.758Z,13.70
2018-06-29T21:20:12.650Z,13.73
2018-06-29T21:23:16.563Z,14.13
2018-06-29T21:26:20.326Z,14.40
2018-06-29T21:29:24.031Z,15.77
2018-06-29T21:32:27.817Z,13.60
2018-06-29T21:35:31.562Z,14.87
2018-06-29T21:38:35.309Z,15.10
2018-06-29T21:41:38.989Z,14.23
2018-06-29T21:44:42.570Z,15.30
2018-06-29T21:47:46.334Z,15.90
2018-06-29T21:50:50.010Z,15.17
2018-06-29T21:53:53.616Z,15.13
2018-06-29T21:56:57.342Z,15.30
2018-06-29T22:00:00.983Z,15.83
2018-06-29T22:03:09.211Z,15.63
2018-06-29T22:06:12.908Z,16.03
2018-06-29T22:09:16.549Z,15.50
2018-06-29T22:12:20.210Z,15.43
2018-06-29T22:15:25.097Z,17.43
2018-06-29T22:18:28.742Z,16.20
2018-06-29T22:21:32.459Z,15.10
2018-06-29T22:24:36.403Z,16.30
2018-06-29T22:27:40.106Z,15.80
2018-06-29T22:30:43.755Z,16.07
2018-06-29T22:33:47.460Z,15.70
2018-06-29T22:36:51.049Z,16.13
2018-06-29T22:39:55.021Z,15.57
2018-06-29T22:42:58.691Z,16.63
2018-06-29T22:46:02.305Z,17.20
2018-06-29T22:49:06.059Z,17.07
2018-06-29T22:52:09.959Z,17.97
2018-06-29T22:55:13.633Z,15.47
2018-06-29T22:58:17.340Z,16.37
2018-06-29T23:01:21.083Z,17.00
2018-06-29T23:04:24.719Z,15.60
2018-06-29T23:07:28.339Z,15.83
2018-06-29T23:10:32.056Z,16.63
2018-06-29T23:13:35.692Z,15.80
2018-06-29T23:16:39.296Z,14.47
2018-06-29T23:19:42.902Z,14.90
2018-06-29T23:22:46.471Z,12.83
2018-06-29T23:25:50.239Z,13.33
2018-06-29T23:28:53.913Z,12.23
2018-06-29T23:31:57.577Z,12.40
2018-06-29T23:35:01.231Z,12.40
2018-06-29T23:38:05.192Z,11.07
2018-06-29T23:41:08.822Z,11.50
2018-06-29T23:44:12.533Z,11.40
2018-06-29T23:47:16.419Z,11.17
2018-06-29T23:50:20.051Z,11.20
2018-06-29T23:53:23.729Z,10.87
2018-06-29T23:56:27.400Z,10.50
2018-06-29T23:59:31.110Z,9.70
